Sardis, Tennessee
Current Conditions -  °F | °C
As of 3:55 PM on Monday 20 Oct 2014 (Local Time) from KPVE Reporting Station
Clear Clear  
Wind Chill: 68°   Ceiling: Unl
Heat Index: 68°   Visibility: 10mi
Dew Point: 50°   Wind: 8mph
Humidity: 52%   Direction: 220°SW
Pressure: 30"   Gusts: NA
Location:  35.44°N, 88.29°W
Report Text: KPVE 202055Z AUTO 22007KT 10SM CLR 20/10 A3000 RMK
Loading
Personal Weather Stations






























Interactive Weather Map
Tropical Storm Tracking
New forecast layout! Learn more

10-Day Weather Forecast

Advertisements
Track Severe Weather on mobile